createdAt,value
2023-05-12T00:04:43.460Z,4.43
2023-05-12T00:14:51.165Z,3.22
2023-05-12T00:25:55.639Z,3.15
2023-05-12T00:36:08.892Z,1.45
2023-05-12T00:46:54.607Z,2.20
2023-05-12T00:57:03.211Z,2.60
2023-05-12T01:44:48.318Z,1.80
2023-05-12T01:56:25.677Z,1.98
2023-05-12T02:07:25.869Z,2.05
2023-05-12T02:30:14.979Z,3.42
2023-05-12T02:40:26.993Z,3.33
2023-05-12T02:51:33.119Z,1.92
2023-05-12T03:01:44.708Z,2.42
2023-05-12T03:12:11.634Z,1.42
2023-05-12T03:22:23.117Z,3.20
2023-05-12T03:33:05.176Z,2.78
2023-05-12T03:43:25.123Z,3.47
2023-05-12T03:53:55.940Z,3.03
2023-05-12T04:15:17.335Z,2.15
2023-05-12T04:25:24.590Z,2.47
2023-05-12T04:35:51.806Z,1.92
2023-05-12T04:46:00.535Z,1.52
2023-05-12T04:56:11.534Z,1.20
2023-05-12T05:06:49.474Z,1.45
2023-05-12T05:16:58.901Z,1.55
2023-05-12T05:27:08.968Z,2.58
2023-05-12T05:37:19.599Z,8.82
2023-05-12T05:47:26.535Z,5.75
2023-05-12T05:57:37.136Z,4.35
2023-05-12T06:07:44.535Z,4.90
2023-05-12T06:17:53.071Z,4.55
2023-05-12T06:27:59.916Z,3.17
2023-05-12T06:38:09.936Z,3.22
2023-05-12T06:48:16.770Z,2.67
2023-05-12T06:58:25.280Z,2.50
2023-05-12T07:08:31.977Z,2.60
2023-05-12T07:18:40.412Z,2.30
2023-05-12T07:28:47.214Z,1.70
2023-05-12T07:38:56.021Z,1.95
2023-05-12T07:49:02.885Z,1.70
2023-05-12T07:59:11.694Z,1.50
2023-05-12T08:09:18.403Z,1.40
2023-05-12T08:19:26.900Z,1.50
2023-05-12T08:29:33.674Z,1.95
2023-05-12T08:39:43.810Z,1.30
2023-05-12T08:49:58.678Z,1.30
2023-05-12T09:00:08.088Z,1.15
2023-05-12T09:10:33.760Z,1.10
2023-05-12T09:20:43.171Z,1.13
2023-05-12T09:30:50.180Z,0.80
2023-05-12T09:40:59.077Z,0.80
2023-05-12T09:51:06.385Z,0.70
2023-05-12T10:01:22.953Z,1.10
2023-05-12T10:11:32.081Z,0.80
2023-05-12T10:21:40.932Z,1.15
2023-05-12T10:31:48.897Z,1.00
2023-05-12T10:42:05.782Z,0.80
2023-05-12T10:52:15.797Z,0.80
2023-05-12T11:02:30.616Z,0.70
2023-05-12T11:12:38.602Z,0.73
2023-05-12T11:22:47.382Z,0.88
2023-05-12T11:33:04.364Z,0.70
2023-05-12T11:43:15.658Z,1.17
2023-05-12T11:53:22.642Z,0.60
2023-05-12T12:03:31.327Z,0.70
2023-05-12T12:13:38.331Z,0.82
2023-05-12T12:23:51.398Z,0.77
2023-05-12T12:33:58.719Z,0.73
2023-05-12T12:44:10.593Z,1.13
2023-05-12T12:54:17.428Z,0.73
2023-05-12T13:04:26.113Z,1.13
2023-05-12T13:14:32.823Z,0.70
2023-05-12T13:24:41.279Z,0.80
2023-05-12T13:34:48.102Z,0.68
2023-05-12T13:44:57.096Z,0.50
2023-05-12T13:55:04.034Z,0.70
2023-05-12T14:05:12.889Z,0.70
2023-05-12T14:15:29.512Z,0.60
2023-05-12T14:25:44.862Z,0.73
2023-05-12T14:36:03.119Z,0.63
2023-05-12T14:46:16.669Z,0.70
2023-05-12T14:56:23.646Z,3.00
2023-05-12T15:06:32.850Z,1.55
2023-05-12T15:16:39.634Z,1.70
2023-05-12T15:26:50.819Z,2.40
2023-05-12T15:36:57.776Z,3.72
2023-05-12T15:47:06.953Z,2.47
2023-05-12T15:57:14.529Z,1.60
2023-05-12T16:07:23.316Z,2.15
2023-05-12T16:17:30.618Z,2.53
2023-05-12T16:27:39.775Z,2.78
2023-05-12T16:37:46.576Z,1.40
2023-05-12T16:47:55.957Z,1.88
2023-05-12T17:10:26.074Z,3.97
2023-05-12T17:20:33.141Z,3.22
2023-05-12T17:30:41.687Z,2.65
2023-05-12T17:40:48.462Z,2.30
2023-05-12T17:50:57.407Z,3.03
2023-05-12T18:01:04.502Z,2.78
2023-05-12T18:11:13.187Z,2.85
2023-05-12T18:21:19.937Z,2.08
2023-05-12T18:31:28.340Z,2.60
2023-05-12T18:41:35.257Z,2.22
2023-05-12T18:51:44.214Z,1.85
2023-05-12T19:01:51.234Z,1.98
2023-05-12T19:11:59.740Z,2.75
2023-05-12T19:22:06.700Z,3.75
2023-05-12T19:32:15.872Z,1.85
2023-05-12T19:42:22.752Z,2.17
2023-05-12T19:52:32.181Z,1.73
2023-05-12T20:02:39.319Z,1.65
2023-05-12T20:12:47.873Z,1.52
2023-05-12T20:22:54.642Z,2.80
2023-05-12T20:33:03.185Z,1.85
2023-05-12T20:43:15.533Z,1.58
2023-05-12T20:53:27.562Z,1.65
2023-05-12T21:03:35.218Z,2.22
2023-05-12T21:13:57.912Z,1.45
2023-05-12T21:24:04.701Z,2.58
2023-05-12T21:34:13.354Z,1.92
2023-05-12T21:44:20.134Z,2.03
2023-05-12T21:54:29.126Z,1.40
2023-05-12T22:05:02.895Z,1.83
2023-05-12T22:15:12.417Z,2.53
2023-05-12T22:25:43.275Z,1.40
2023-05-12T22:35:54.259Z,2.15
2023-05-12T22:46:01.217Z,1.65
2023-05-12T22:56:11.521Z,2.80
2023-05-12T23:06:21.289Z,4.72
2023-05-12T23:16:32.897Z,2.10
2023-05-12T23:26:39.688Z,2.30
2023-05-12T23:47:38.671Z,2.28
